EJU11RT LFPO-LFBD
Flight info
| Callsign | EJU11RT |
|---|---|
| Flight time | 1h 13m |
| Altitude | 31000 |
| Route | AGOPA DCT ARKIP DCT ARMAL DCT ARTAX DCT BEBIX DCT LMG |
| Aircraft | A20N/M-SDE2E3FGHIRWXY/LB1 |
Departure
| Time | 2026-05-04 22:25 |
|---|---|
| Airport | Paris-Orly Airport (LFPO) |
Arrival
| Time | 2026-05-04 23:38 |
|---|---|
| Airport | Bordeaux–Mérignac Airport (LFBD) |
| Time | Latitude | Longitude | Altitude | Speed | Heading |
|---|---|---|---|---|---|
| 2026-05-04 22:03 | 48.73017 | 2.35828 | 282 ft | 0 kts | 133° |
| 2026-05-04 22:15 | 48.73025 | 2.35815 | 290 ft | 2 kts | 133° |
| 2026-05-04 22:15 | 48.73035 | 2.35798 | 291 ft | 2 kts | 132° |
| 2026-05-04 22:15 | 48.73045 | 2.35781 | 289 ft | 2 kts | 132° |
| 2026-05-04 22:16 | 48.73055 | 2.35764 | 292 ft | 2 kts | 131° |
| 2026-05-04 22:16 | 48.73062 | 2.35753 | 292 ft | 2 kts | 130° |
| 2026-05-04 22:16 | 48.73077 | 2.35733 | 291 ft | 2 kts | 174° |
| 2026-05-04 22:16 | 48.73091 | 2.35737 | 291 ft | 2 kts | 227° |
| 2026-05-04 22:17 | 48.73096 | 2.35747 | 292 ft | 0 kts | 238° |
| 2026-05-04 22:19 | 48.73095 | 2.35744 | 292 ft | 2 kts | 238° |
| 2026-05-04 22:19 | 48.73080 | 2.35709 | 291 ft | 6 kts | 238° |
| 2026-05-04 22:20 | 48.73051 | 2.35637 | 292 ft | 10 kts | 238° |
| 2026-05-04 22:20 | 48.73021 | 2.35574 | 289 ft | 12 kts | 228° |
| 2026-05-04 22:20 | 48.72936 | 2.35527 | 289 ft | 12 kts | 175° |
| 2026-05-04 22:20 | 48.72842 | 2.35563 | 290 ft | 16 kts | 164° |
| 2026-05-04 22:21 | 48.72762 | 2.35560 | 291 ft | 11 kts | 222° |
| 2026-05-04 22:21 | 48.72669 | 2.35510 | 292 ft | 14 kts | 165° |
| 2026-05-04 22:21 | 48.72576 | 2.35550 | 289 ft | 10 kts | 164° |
| 2026-05-04 22:21 | 48.72526 | 2.35571 | 291 ft | 12 kts | 164° |
| 2026-05-04 22:22 | 48.72431 | 2.35611 | 291 ft | 16 kts | 164° |
| 2026-05-04 22:22 | 48.72336 | 2.35637 | 288 ft | 14 kts | 189° |
| 2026-05-04 22:22 | 48.72239 | 2.35603 | 291 ft | 12 kts | 180° |
| 2026-05-04 22:22 | 48.72149 | 2.35632 | 287 ft | 9 kts | 166° |
| 2026-05-04 22:23 | 48.72114 | 2.35648 | 287 ft | 7 kts | 161° |
| 2026-05-04 22:23 | 48.72061 | 2.35692 | 289 ft | 11 kts | 142° |
| 2026-05-04 22:23 | 48.72012 | 2.35797 | 290 ft | 14 kts | 118° |
| 2026-05-04 22:23 | 48.71971 | 2.35917 | 291 ft | 12 kts | 112° |
| 2026-05-04 22:24 | 48.71978 | 2.36059 | 290 ft | 16 kts | 74° |
| 2026-05-04 22:24 | 48.72061 | 2.36502 | 294 ft | 77 kts | 74° |
| 2026-05-04 22:24 | 48.72259 | 2.37585 | 290 ft | 132 kts | 75° |
| 2026-05-04 22:24 | 48.72535 | 2.39083 | 519 ft | 153 kts | 73° |
| 2026-05-04 22:25 | 48.72826 | 2.40625 | 1076 ft | 154 kts | 73° |
| 2026-05-04 22:25 | 48.73127 | 2.42218 | 1545 ft | 166 kts | 73° |
| 2026-05-04 22:25 | 48.73477 | 2.43988 | 1918 ft | 185 kts | 73° |
| 2026-05-04 22:25 | 48.73866 | 2.45959 | 2345 ft | 205 kts | 73° |
| 2026-05-04 22:26 | 48.74243 | 2.48186 | 2783 ft | 231 kts | 82° |
| 2026-05-04 22:26 | 48.74366 | 2.50751 | 3415 ft | 254 kts | 89° |
| 2026-05-04 22:26 | 48.74373 | 2.53473 | 4268 ft | 266 kts | 91° |
| 2026-05-04 22:26 | 48.74344 | 2.56299 | 5367 ft | 269 kts | 95° |
| 2026-05-04 22:27 | 48.73864 | 2.59037 | 6454 ft | 271 kts | 118° |
| 2026-05-04 22:27 | 48.72684 | 2.61268 | 7416 ft | 275 kts | 143° |
| 2026-05-04 22:27 | 48.70961 | 2.62508 | 8426 ft | 276 kts | 169° |
| 2026-05-04 22:27 | 48.69042 | 2.62796 | 9384 ft | 280 kts | 180° |
| 2026-05-04 22:28 | 48.67082 | 2.62817 | 10054 ft | 284 kts | 181° |
| 2026-05-04 22:28 | 48.65079 | 2.62508 | 10582 ft | 303 kts | 197° |
| 2026-05-04 22:28 | 48.63156 | 2.60989 | 10974 ft | 325 kts | 220° |
| 2026-05-04 22:28 | 48.61609 | 2.58429 | 11747 ft | 332 kts | 230° |
| 2026-05-04 22:29 | 48.60145 | 2.55693 | 12686 ft | 336 kts | 231° |
| 2026-05-04 22:29 | 48.58671 | 2.52920 | 13589 ft | 341 kts | 231° |
| 2026-05-04 22:29 | 48.57164 | 2.50123 | 14431 ft | 344 kts | 230° |
| 2026-05-04 22:29 | 48.55634 | 2.47323 | 15267 ft | 347 kts | 230° |
| 2026-05-04 22:30 | 48.54084 | 2.44510 | 16083 ft | 351 kts | 230° |
| 2026-05-04 22:30 | 48.52347 | 2.41982 | 16869 ft | 354 kts | 214° |
| 2026-05-04 22:30 | 48.50096 | 2.40426 | 17654 ft | 359 kts | 195° |
| 2026-05-04 22:30 | 48.47599 | 2.39914 | 18419 ft | 364 kts | 186° |
| 2026-05-04 22:31 | 48.45068 | 2.39581 | 19174 ft | 365 kts | 188° |
| 2026-05-04 22:31 | 48.42565 | 2.38996 | 19946 ft | 365 kts | 192° |
| 2026-05-04 22:31 | 48.40082 | 2.38143 | 20680 ft | 366 kts | 195° |
| 2026-05-04 22:31 | 48.37621 | 2.37121 | 21415 ft | 367 kts | 197° |
| 2026-05-04 22:32 | 48.35159 | 2.36015 | 22139 ft | 369 kts | 198° |
| 2026-05-04 22:32 | 48.32723 | 2.34891 | 22841 ft | 371 kts | 198° |
| 2026-05-04 22:32 | 48.30242 | 2.33743 | 23516 ft | 374 kts | 198° |
| 2026-05-04 22:32 | 48.27748 | 2.32596 | 24105 ft | 376 kts | 197° |
| 2026-05-04 22:33 | 48.25234 | 2.31447 | 24685 ft | 377 kts | 198° |
| 2026-05-04 22:33 | 48.22712 | 2.30299 | 25236 ft | 380 kts | 198° |
| 2026-05-04 22:33 | 48.20178 | 2.29148 | 25781 ft | 382 kts | 198° |
| 2026-05-04 22:33 | 48.17618 | 2.27987 | 26329 ft | 383 kts | 198° |
| 2026-05-04 22:34 | 48.15054 | 2.26826 | 26856 ft | 385 kts | 198° |
| 2026-05-04 22:34 | 48.12508 | 2.25674 | 27356 ft | 388 kts | 198° |
| 2026-05-04 22:34 | 48.09922 | 2.24505 | 27857 ft | 389 kts | 198° |
| 2026-05-04 22:34 | 48.07321 | 2.23331 | 28342 ft | 391 kts | 198° |
| 2026-05-04 22:35 | 48.04703 | 2.22150 | 28803 ft | 393 kts | 198° |
| 2026-05-04 22:35 | 48.02069 | 2.20963 | 29248 ft | 395 kts | 198° |
| 2026-05-04 22:35 | 47.99428 | 2.19774 | 29689 ft | 397 kts | 198° |
| 2026-05-04 22:35 | 47.96808 | 2.18595 | 30111 ft | 399 kts | 198° |
| 2026-05-04 22:36 | 47.94107 | 2.17382 | 30490 ft | 401 kts | 198° |
| 2026-05-04 22:36 | 47.91460 | 2.16195 | 30817 ft | 403 kts | 198° |
| 2026-05-04 22:36 | 47.88774 | 2.14992 | 30932 ft | 403 kts | 198° |
| 2026-05-04 22:37 | 47.83397 | 2.12585 | 30936 ft | 402 kts | 198° |
| 2026-05-04 22:37 | 47.78038 | 2.10189 | 30935 ft | 403 kts | 198° |
| 2026-05-04 22:38 | 47.72668 | 2.07796 | 30924 ft | 402 kts | 198° |
| 2026-05-04 22:38 | 47.67323 | 2.05428 | 30924 ft | 403 kts | 197° |
| 2026-05-04 22:39 | 47.61777 | 2.03998 | 30916 ft | 406 kts | 187° |
| 2026-05-04 22:39 | 47.56104 | 2.04062 | 30907 ft | 409 kts | 181° |
| 2026-05-04 22:40 | 47.50416 | 2.04390 | 30904 ft | 409 kts | 181° |
| 2026-05-04 22:40 | 47.44760 | 2.04703 | 30907 ft | 409 kts | 181° |
| 2026-05-04 22:41 | 47.39063 | 2.05025 | 30908 ft | 409 kts | 181° |
| 2026-05-04 22:41 | 47.33376 | 2.04871 | 30911 ft | 407 kts | 187° |
| 2026-05-04 22:42 | 47.27780 | 2.03705 | 30909 ft | 405 kts | 192° |
| 2026-05-04 22:42 | 47.22217 | 2.02285 | 30903 ft | 406 kts | 192° |
| 2026-05-04 22:43 | 47.16665 | 2.00891 | 30909 ft | 406 kts | 192° |
| 2026-05-04 22:43 | 47.11097 | 1.99489 | 30912 ft | 406 kts | 192° |
| 2026-05-04 22:44 | 47.05515 | 1.98085 | 30909 ft | 406 kts | 192° |
| 2026-05-04 22:44 | 46.99986 | 1.96696 | 30918 ft | 406 kts | 192° |
| 2026-05-04 22:45 | 46.94415 | 1.95301 | 30916 ft | 405 kts | 192° |
| 2026-05-04 22:45 | 46.86071 | 1.93214 | 30917 ft | 405 kts | 191° |
| 2026-05-04 22:46 | 46.80548 | 1.91838 | 30911 ft | 405 kts | 191° |
| 2026-05-04 22:46 | 46.74977 | 1.90452 | 30911 ft | 405 kts | 191° |
| 2026-05-04 22:47 | 46.69421 | 1.89073 | 30908 ft | 405 kts | 191° |
| 2026-05-04 22:47 | 46.63890 | 1.87703 | 30907 ft | 405 kts | 191° |
| 2026-05-04 22:48 | 46.58333 | 1.86329 | 30896 ft | 406 kts | 191° |
| 2026-05-04 22:48 | 46.52751 | 1.84952 | 30897 ft | 406 kts | 191° |
| 2026-05-04 22:49 | 46.47165 | 1.83578 | 30897 ft | 407 kts | 191° |
| 2026-05-04 22:49 | 46.41562 | 1.82202 | 30902 ft | 408 kts | 191° |
| 2026-05-04 22:50 | 46.35993 | 1.80838 | 30912 ft | 409 kts | 191° |
| 2026-05-04 22:50 | 46.30371 | 1.79461 | 30916 ft | 410 kts | 192° |
| 2026-05-04 22:51 | 46.25029 | 1.76716 | 30920 ft | 408 kts | 209° |
| 2026-05-04 22:51 | 46.20507 | 1.71774 | 30928 ft | 409 kts | 220° |
| 2026-05-04 22:52 | 46.16201 | 1.66383 | 30935 ft | 410 kts | 220° |
| 2026-05-04 22:52 | 46.11880 | 1.61005 | 30939 ft | 410 kts | 220° |
| 2026-05-04 22:53 | 46.07557 | 1.55631 | 30945 ft | 410 kts | 220° |
| 2026-05-04 22:53 | 46.03272 | 1.50314 | 30945 ft | 409 kts | 220° |
| 2026-05-04 22:54 | 45.98954 | 1.44965 | 30945 ft | 409 kts | 220° |
| 2026-05-04 22:54 | 45.95023 | 1.39046 | 30945 ft | 410 kts | 231° |
| 2026-05-04 22:55 | 45.92095 | 1.31990 | 30942 ft | 413 kts | 240° |
| 2026-05-04 22:55 | 45.89501 | 1.24669 | 30944 ft | 412 kts | 240° |
| 2026-05-04 22:56 | 45.86881 | 1.17340 | 30940 ft | 412 kts | 240° |
| 2026-05-04 22:56 | 45.84265 | 1.10024 | 30936 ft | 411 kts | 240° |
| 2026-05-04 22:57 | 45.82966 | 1.06394 | 30758 ft | 407 kts | 239° |
| 2026-05-04 22:57 | 45.81631 | 1.02851 | 30242 ft | 403 kts | 236° |
| 2026-05-04 22:57 | 45.80071 | 0.99526 | 29525 ft | 399 kts | 231° |
| 2026-05-04 22:57 | 45.78431 | 0.96333 | 28746 ft | 398 kts | 231° |
| 2026-05-04 22:58 | 45.76799 | 0.93128 | 28004 ft | 396 kts | 231° |
| 2026-05-04 22:58 | 45.75182 | 0.89943 | 27259 ft | 394 kts | 231° |
| 2026-05-04 22:58 | 45.73572 | 0.86777 | 26541 ft | 393 kts | 231° |
| 2026-05-04 22:58 | 45.71964 | 0.83618 | 25851 ft | 391 kts | 231° |
| 2026-05-04 22:59 | 45.70362 | 0.80478 | 25168 ft | 390 kts | 231° |
| 2026-05-04 22:59 | 45.68767 | 0.77352 | 24518 ft | 388 kts | 230° |
| 2026-05-04 22:59 | 45.67182 | 0.74250 | 24103 ft | 384 kts | 230° |
| 2026-05-04 22:59 | 45.65622 | 0.71202 | 23674 ft | 384 kts | 230° |
| 2026-05-04 23:00 | 45.64042 | 0.68121 | 23077 ft | 383 kts | 230° |
| 2026-05-04 23:00 | 45.62976 | 0.66044 | 22668 ft | 381 kts | 230° |
| 2026-05-04 23:00 | 45.61436 | 0.63049 | 22076 ft | 377 kts | 230° |
| 2026-05-04 23:00 | 45.59892 | 0.60049 | 21481 ft | 373 kts | 230° |
| 2026-05-04 23:01 | 45.58360 | 0.57078 | 20885 ft | 369 kts | 231° |
| 2026-05-04 23:01 | 45.56841 | 0.54137 | 20325 ft | 366 kts | 231° |
| 2026-05-04 23:01 | 45.55344 | 0.51239 | 20032 ft | 361 kts | 231° |
| 2026-05-04 23:01 | 45.53849 | 0.48348 | 19961 ft | 364 kts | 231° |
| 2026-05-04 23:02 | 45.51839 | 0.44460 | 19960 ft | 364 kts | 231° |
| 2026-05-04 23:02 | 45.50336 | 0.41554 | 19958 ft | 363 kts | 231° |
| 2026-05-04 23:02 | 45.48836 | 0.38658 | 19960 ft | 363 kts | 231° |
| 2026-05-04 23:02 | 45.47350 | 0.35792 | 19963 ft | 363 kts | 231° |
| 2026-05-04 23:03 | 45.45846 | 0.32895 | 19958 ft | 363 kts | 231° |
| 2026-05-04 23:03 | 45.44341 | 0.29998 | 19962 ft | 363 kts | 231° |
| 2026-05-04 23:03 | 45.42838 | 0.27107 | 19962 ft | 363 kts | 231° |
| 2026-05-04 23:03 | 45.41335 | 0.24220 | 19948 ft | 360 kts | 231° |
| 2026-05-04 23:04 | 45.40353 | 0.22334 | 19908 ft | 355 kts | 231° |
| 2026-05-04 23:04 | 45.38901 | 0.19548 | 19814 ft | 344 kts | 231° |
| 2026-05-04 23:04 | 45.37065 | 0.16028 | 19668 ft | 326 kts | 231° |
| 2026-05-04 23:04 | 45.36160 | 0.14296 | 19596 ft | 317 kts | 231° |
| 2026-05-04 23:05 | 45.34887 | 0.11856 | 19497 ft | 305 kts | 231° |
| 2026-05-04 23:05 | 45.33260 | 0.08685 | 19365 ft | 288 kts | 231° |
| 2026-05-04 23:05 | 45.32491 | 0.07179 | 19308 ft | 280 kts | 231° |
| 2026-05-04 23:05 | 45.31372 | 0.04987 | 19212 ft | 268 kts | 231° |
| 2026-05-04 23:06 | 45.30293 | 0.02882 | 19057 ft | 260 kts | 231° |
| 2026-05-04 23:06 | 45.29213 | 0.00783 | 18483 ft | 268 kts | 231° |
| 2026-05-04 23:06 | 45.28090 | -0.01390 | 17818 ft | 278 kts | 232° |
| 2026-05-04 23:06 | 45.26943 | -0.03614 | 17354 ft | 279 kts | 232° |
| 2026-05-04 23:07 | 45.25804 | -0.05827 | 16961 ft | 277 kts | 232° |
| 2026-05-04 23:07 | 45.24669 | -0.08034 | 16574 ft | 275 kts | 232° |
| 2026-05-04 23:07 | 45.23539 | -0.10226 | 16195 ft | 274 kts | 232° |
| 2026-05-04 23:07 | 45.22424 | -0.12388 | 16007 ft | 271 kts | 232° |
| 2026-05-04 23:08 | 45.21315 | -0.14534 | 15970 ft | 273 kts | 232° |
| 2026-05-04 23:08 | 45.20188 | -0.16716 | 15971 ft | 274 kts | 232° |
| 2026-05-04 23:08 | 45.19060 | -0.18897 | 15909 ft | 272 kts | 232° |
| 2026-05-04 23:08 | 45.17945 | -0.21051 | 15476 ft | 270 kts | 232° |
| 2026-05-04 23:09 | 45.16815 | -0.23178 | 14926 ft | 269 kts | 228° |
| 2026-05-04 23:09 | 45.15523 | -0.25091 | 14382 ft | 268 kts | 224° |
| 2026-05-04 23:09 | 45.14218 | -0.26958 | 13861 ft | 266 kts | 225° |
| 2026-05-04 23:09 | 45.12940 | -0.28799 | 13310 ft | 264 kts | 225° |
| 2026-05-04 23:10 | 45.11653 | -0.30658 | 12727 ft | 263 kts | 225° |
| 2026-05-04 23:10 | 45.10373 | -0.32506 | 12160 ft | 262 kts | 225° |
| 2026-05-04 23:10 | 45.09097 | -0.34345 | 11628 ft | 261 kts | 224° |
| 2026-05-04 23:10 | 45.07797 | -0.36176 | 10983 ft | 264 kts | 224° |
| 2026-05-04 23:11 | 45.06507 | -0.37968 | 10528 ft | 258 kts | 224° |
| 2026-05-04 23:11 | 45.05227 | -0.39742 | 10011 ft | 256 kts | 224° |
| 2026-05-04 23:11 | 45.03959 | -0.41503 | 9465 ft | 255 kts | 224° |
| 2026-05-04 23:11 | 45.02702 | -0.43249 | 8884 ft | 252 kts | 224° |
| 2026-05-04 23:12 | 45.01455 | -0.44983 | 8274 ft | 251 kts | 224° |
| 2026-05-04 23:12 | 45.00217 | -0.46704 | 7699 ft | 248 kts | 224° |
| 2026-05-04 23:12 | 44.98989 | -0.48412 | 7121 ft | 247 kts | 224° |
| 2026-05-04 23:12 | 44.97776 | -0.50120 | 6556 ft | 245 kts | 225° |
| 2026-05-04 23:13 | 44.96612 | -0.51835 | 5987 ft | 244 kts | 226° |
| 2026-05-04 23:13 | 44.95432 | -0.53549 | 5408 ft | 242 kts | 225° |
| 2026-05-04 23:13 | 44.94252 | -0.55245 | 4854 ft | 241 kts | 225° |
| 2026-05-04 23:13 | 44.93078 | -0.56926 | 4295 ft | 239 kts | 225° |
| 2026-05-04 23:14 | 44.91913 | -0.58597 | 3747 ft | 238 kts | 225° |
| 2026-05-04 23:14 | 44.90753 | -0.60257 | 3229 ft | 236 kts | 225° |
| 2026-05-04 23:14 | 44.89643 | -0.61847 | 3010 ft | 222 kts | 225° |
| 2026-05-04 23:14 | 44.88612 | -0.63321 | 3012 ft | 200 kts | 225° |
| 2026-05-04 23:15 | 44.87616 | -0.64746 | 3229 ft | 206 kts | 225° |
| 2026-05-04 23:15 | 44.86562 | -0.66253 | 3497 ft | 222 kts | 225° |
| 2026-05-04 23:15 | 44.85447 | -0.67763 | 3744 ft | 223 kts | 214° |
| 2026-05-04 23:15 | 44.83998 | -0.68479 | 3962 ft | 226 kts | 181° |
| 2026-05-04 23:16 | 44.82487 | -0.67960 | 3996 ft | 227 kts | 148° |
| 2026-05-04 23:16 | 44.81424 | -0.66335 | 3992 ft | 230 kts | 114° |
| 2026-05-04 23:16 | 44.81175 | -0.64156 | 3992 ft | 232 kts | 81° |
| 2026-05-04 23:16 | 44.81832 | -0.62102 | 3992 ft | 233 kts | 46° |
| 2026-05-04 23:17 | 44.83194 | -0.60895 | 3996 ft | 233 kts | 12° |
| 2026-05-04 23:17 | 44.84794 | -0.60910 | 4002 ft | 233 kts | 344° |
| 2026-05-04 23:17 | 44.86325 | -0.61655 | 3992 ft | 231 kts | 334° |
| 2026-05-04 23:17 | 44.87756 | -0.62670 | 3993 ft | 230 kts | 330° |
| 2026-05-04 23:18 | 44.89161 | -0.63755 | 3993 ft | 230 kts | 329° |
| 2026-05-04 23:18 | 44.90549 | -0.64820 | 3994 ft | 229 kts | 330° |
| 2026-05-04 23:18 | 44.91962 | -0.65880 | 3992 ft | 230 kts | 331° |
| 2026-05-04 23:18 | 44.93377 | -0.66925 | 3992 ft | 229 kts | 331° |
| 2026-05-04 23:19 | 44.94789 | -0.67961 | 3993 ft | 229 kts | 331° |
| 2026-05-04 23:19 | 44.96201 | -0.68993 | 3992 ft | 229 kts | 331° |
| 2026-05-04 23:19 | 44.97626 | -0.70033 | 3985 ft | 229 kts | 331° |
| 2026-05-04 23:19 | 44.99040 | -0.71064 | 3988 ft | 228 kts | 332° |
| 2026-05-04 23:20 | 45.00450 | -0.72095 | 3989 ft | 229 kts | 331° |
| 2026-05-04 23:20 | 45.01864 | -0.73131 | 3986 ft | 228 kts | 331° |
| 2026-05-04 23:20 | 45.03259 | -0.74155 | 3989 ft | 229 kts | 331° |
| 2026-05-04 23:20 | 45.04672 | -0.75190 | 3986 ft | 228 kts | 331° |
| 2026-05-04 23:21 | 45.06082 | -0.76225 | 3986 ft | 228 kts | 331° |
| 2026-05-04 23:21 | 45.07490 | -0.77259 | 3980 ft | 228 kts | 331° |
| 2026-05-04 23:21 | 45.08902 | -0.78296 | 3983 ft | 228 kts | 331° |
| 2026-05-04 23:21 | 45.10311 | -0.79333 | 3976 ft | 228 kts | 331° |
| 2026-05-04 23:22 | 45.11732 | -0.80380 | 3982 ft | 234 kts | 331° |
| 2026-05-04 23:22 | 45.13177 | -0.81444 | 3979 ft | 233 kts | 331° |
| 2026-05-04 23:22 | 45.14613 | -0.82501 | 3980 ft | 233 kts | 331° |
| 2026-05-04 23:22 | 45.16049 | -0.83559 | 3974 ft | 232 kts | 331° |
| 2026-05-04 23:23 | 45.17484 | -0.84616 | 3973 ft | 232 kts | 331° |
| 2026-05-04 23:23 | 45.18898 | -0.85660 | 3972 ft | 232 kts | 331° |
| 2026-05-04 23:23 | 45.20382 | -0.86564 | 3969 ft | 233 kts | 349° |
| 2026-05-04 23:23 | 45.21993 | -0.86396 | 3971 ft | 236 kts | 21° |
| 2026-05-04 23:24 | 45.23306 | -0.85026 | 3976 ft | 238 kts | 54° |
| 2026-05-04 23:24 | 45.23902 | -0.82868 | 3972 ft | 238 kts | 87° |
| 2026-05-04 23:24 | 45.23601 | -0.80595 | 3972 ft | 237 kts | 119° |
| 2026-05-04 23:24 | 45.22502 | -0.78896 | 3969 ft | 235 kts | 152° |
| 2026-05-04 23:25 | 45.20978 | -0.78059 | 3964 ft | 235 kts | 163° |
| 2026-05-04 23:25 | 45.19427 | -0.77334 | 3971 ft | 234 kts | 163° |
| 2026-05-04 23:25 | 45.17884 | -0.76598 | 3972 ft | 234 kts | 162° |
| 2026-05-04 23:25 | 45.16340 | -0.75852 | 3978 ft | 234 kts | 162° |
| 2026-05-04 23:26 | 45.14812 | -0.75148 | 3974 ft | 233 kts | 170° |
| 2026-05-04 23:26 | 45.13225 | -0.75275 | 3979 ft | 231 kts | 202° |
| 2026-05-04 23:26 | 45.11930 | -0.76565 | 3981 ft | 229 kts | 233° |
| 2026-05-04 23:26 | 45.11304 | -0.78607 | 3982 ft | 229 kts | 264° |
| 2026-05-04 23:27 | 45.11512 | -0.80817 | 3977 ft | 230 kts | 294° |
| 2026-05-04 23:27 | 45.12499 | -0.82568 | 3978 ft | 231 kts | 324° |
| 2026-05-04 23:27 | 45.13902 | -0.83668 | 3979 ft | 232 kts | 345° |
| 2026-05-04 23:27 | 45.15505 | -0.83629 | 3971 ft | 235 kts | 17° |
| 2026-05-04 23:28 | 45.17043 | -0.82805 | 3969 ft | 236 kts | 21° |
| 2026-05-04 23:28 | 45.18543 | -0.81953 | 3971 ft | 236 kts | 21° |
| 2026-05-04 23:28 | 45.20064 | -0.81085 | 3973 ft | 235 kts | 21° |
| 2026-05-04 23:28 | 45.21497 | -0.79970 | 3975 ft | 236 kts | 44° |
| 2026-05-04 23:29 | 45.22340 | -0.77993 | 3971 ft | 238 kts | 77° |
| 2026-05-04 23:29 | 45.22304 | -0.75666 | 3970 ft | 239 kts | 110° |
| 2026-05-04 23:29 | 45.21398 | -0.73742 | 3971 ft | 237 kts | 143° |
| 2026-05-04 23:29 | 45.19944 | -0.72669 | 3975 ft | 236 kts | 159° |
| 2026-05-04 23:30 | 45.18434 | -0.71758 | 3974 ft | 236 kts | 158° |
| 2026-05-04 23:30 | 45.16943 | -0.70788 | 3976 ft | 235 kts | 156° |
| 2026-05-04 23:30 | 45.15483 | -0.69802 | 3978 ft | 235 kts | 155° |
| 2026-05-04 23:30 | 45.13984 | -0.68779 | 3969 ft | 235 kts | 155° |
| 2026-05-04 23:31 | 45.12533 | -0.67789 | 3815 ft | 234 kts | 155° |
| 2026-05-04 23:31 | 45.11060 | -0.66787 | 3511 ft | 234 kts | 155° |
| 2026-05-04 23:31 | 45.09588 | -0.65792 | 3226 ft | 234 kts | 155° |
| 2026-05-04 23:31 | 45.08120 | -0.64801 | 2992 ft | 231 kts | 155° |
| 2026-05-04 23:32 | 45.06662 | -0.63819 | 2984 ft | 236 kts | 155° |
| 2026-05-04 23:32 | 45.05206 | -0.62842 | 2987 ft | 233 kts | 155° |
| 2026-05-04 23:32 | 45.03766 | -0.61874 | 2979 ft | 222 kts | 155° |
| 2026-05-04 23:32 | 45.02421 | -0.60968 | 2983 ft | 206 kts | 155° |
| 2026-05-04 23:33 | 45.01150 | -0.60115 | 2987 ft | 204 kts | 156° |
| 2026-05-04 23:33 | 44.99866 | -0.59255 | 2981 ft | 203 kts | 156° |
| 2026-05-04 23:33 | 44.98596 | -0.58406 | 2992 ft | 198 kts | 156° |
| 2026-05-04 23:33 | 44.97389 | -0.57598 | 2991 ft | 191 kts | 156° |
| 2026-05-04 23:34 | 44.96179 | -0.56791 | 2991 ft | 192 kts | 156° |
| 2026-05-04 23:34 | 44.94933 | -0.56286 | 2986 ft | 183 kts | 181° |
| 2026-05-04 23:34 | 44.93758 | -0.56645 | 2897 ft | 168 kts | 207° |
| 2026-05-04 23:34 | 44.92786 | -0.57510 | 2680 ft | 162 kts | 221° |
| 2026-05-04 23:35 | 44.91978 | -0.58528 | 2479 ft | 148 kts | 226° |
| 2026-05-04 23:35 | 44.91286 | -0.59498 | 2282 ft | 133 kts | 227° |
| 2026-05-04 23:35 | 44.90642 | -0.60419 | 2108 ft | 134 kts | 227° |
| 2026-05-04 23:35 | 44.89994 | -0.61345 | 1928 ft | 131 kts | 227° |
| 2026-05-04 23:36 | 44.89352 | -0.62266 | 1749 ft | 132 kts | 228° |
| 2026-05-04 23:36 | 44.88711 | -0.63189 | 1578 ft | 132 kts | 227° |
| 2026-05-04 23:36 | 44.88066 | -0.64101 | 1415 ft | 131 kts | 227° |
| 2026-05-04 23:36 | 44.87432 | -0.64998 | 1206 ft | 130 kts | 227° |
| 2026-05-04 23:37 | 44.86793 | -0.65911 | 1013 ft | 129 kts | 227° |
| 2026-05-04 23:37 | 44.86166 | -0.66812 | 849 ft | 129 kts | 227° |
| 2026-05-04 23:37 | 44.85543 | -0.67702 | 673 ft | 129 kts | 227° |
| 2026-05-04 23:37 | 44.84915 | -0.68595 | 492 ft | 127 kts | 226° |
| 2026-05-04 23:38 | 44.84297 | -0.69486 | 326 ft | 127 kts | 227° |
| 2026-05-04 23:38 | 44.83676 | -0.70380 | 167 ft | 125 kts | 226° |
| 2026-05-04 23:38 | 44.83142 | -0.71143 | 164 ft | 90 kts | 225° |
| 2026-05-04 23:38 | 44.82914 | -0.71468 | 164 ft | 30 kts | 225° |
| 2026-05-04 23:39 | 44.82871 | -0.71511 | 165 ft | 4 kts | 167° |
| 2026-05-04 23:39 | 44.82849 | -0.71456 | 164 ft | 10 kts | 107° |
| 2026-05-04 23:39 | 44.82825 | -0.71339 | 163 ft | 15 kts | 107° |
| 2026-05-04 23:39 | 44.82805 | -0.71198 | 163 ft | 15 kts | 77° |
| 2026-05-04 23:40 | 44.82874 | -0.71073 | 165 ft | 18 kts | 46° |
| 2026-05-04 23:40 | 44.82940 | -0.70968 | 164 ft | 10 kts | 73° |
| 2026-05-04 23:40 | 44.82924 | -0.70857 | 165 ft | 13 kts | 107° |
| 2026-05-04 23:40 | 44.82893 | -0.70715 | 166 ft | 17 kts | 106° |
| 2026-05-04 23:41 | 44.82862 | -0.70565 | 166 ft | 10 kts | 105° |
| 2026-05-04 23:41 | 44.82887 | -0.70458 | 166 ft | 14 kts | 46° |
| 2026-05-04 23:41 | 44.82931 | -0.70402 | 166 ft | 2 kts | 13° |
| 2026-05-04 23:41 | 44.82957 | -0.70427 | 166 ft | 7 kts | 316° |
| 2026-05-04 23:42 | 44.82975 | -0.70451 | 165 ft | 5 kts | 315° |
| 2026-05-04 23:42 | 44.82975 | -0.70452 | 165 ft | 0 kts | 315° |